Time;durP1;ratioP1;P1;durP2;ratioP2;P2;SDS_P1;SDS_P2;PMS_P1;PMS_P2;Temp;Humidity;BMP_temperature;BMP_pressure;BME280_temperature;BME280_humidity;BME280_pressure;Samples;Min_cycle;Max_cycle;Signal;HPM_P1;HPM_P2
2023/04/19 00:01:08;;;;;;;10.30;6.78;;;;;;;;;;6244120;23;20034;-79
2023/04/19 00:03:34;;;;;;;10.48;6.95;;;;;;;;;;6244311;22;20076;-79
2023/04/19 00:05:59;;;;;;;11.02;7.40;;;;;;;;;;6245394;22;20004;-80
2023/04/19 00:08:25;;;;;;;10.15;6.43;;;;;;;;;;6244201;22;20004;-79
2023/04/19 00:10:50;;;;;;;11.02;7.30;;;;;;;;;;6244536;22;20346;-78
2023/04/19 00:13:16;;;;;;;10.05;6.60;;;;;;;;;;6245037;22;20035;-79
2023/04/19 00:15:41;;;;;;;9.60;7.28;;;;;;;;;;6244066;22;20000;-79
2023/04/19 00:18:06;;;;;;;11.77;7.63;;;;;;;;;;6245739;22;20000;-79
2023/04/19 00:20:32;;;;;;;11.00;6.30;;;;;;;;;;6244548;22;20359;-78
2023/04/19 00:22:58;;;;;;;11.77;6.68;;;;;;;;;;6244660;22;20393;-79
2023/04/19 00:25:23;;;;;;;9.18;6.75;;;;;;;;;;6245299;22;20524;-79
2023/04/19 00:27:49;;;;;;;9.48;6.18;;;;;;;;;;6243744;23;20008;-79
2023/04/19 00:30:14;;;;;;;10.63;6.85;;;;;;;;;;6243333;23;20375;-79
2023/04/19 00:32:39;;;;;;;9.80;6.35;;;;;;;;;;6243103;23;20357;-79
2023/04/19 00:35:05;;;;;;;10.43;6.82;;;;;;;;;;6242754;23;20004;-78
2023/04/19 00:37:31;;;;;;;9.52;6.70;;;;;;;;;;6242791;23;20000;-77
2023/04/19 00:39:56;;;;;;;10.10;6.88;;;;;;;;;;6244685;22;20457;-81
2023/04/19 00:42:21;;;;;;;10.38;6.68;;;;;;;;;;6243983;22;20004;-78
2023/04/19 00:44:46;;;;;;;10.38;6.47;;;;;;;;;;6243921;22;20322;-79
2023/04/19 00:47:13;;;;;;;11.73;6.97;;;;;;;;;;6243141;23;20323;-78
2023/04/19 00:49:39;;;;;;;10.38;6.80;;;;;;;;;;6241899;22;20429;-77
2023/04/19 00:52:06;;;;;;;10.88;7.15;;;;;;;;;;6243588;22;20000;-78
2023/04/19 00:54:32;;;;;;;9.95;6.50;;;;;;;;;;6243222;22;20508;-79
2023/04/19 00:56:57;;;;;;;9.95;6.82;;;;;;;;;;6241788;23;20003;-79
2023/04/19 00:59:23;;;;;;;11.77;6.93;;;;;;;;;;6240118;23;20022;-79
2023/04/19 01:01:49;;;;;;;9.40;6.53;;;;;;;;;;6239920;23;20054;-80
2023/04/19 01:04:15;;;;;;;10.00;6.97;;;;;;;;;;6241822;23;20012;-79
2023/04/19 01:06:40;;;;;;;10.57;6.45;;;;;;;;;;6243177;22;20063;-79
2023/04/19 01:09:06;;;;;;;10.40;7.07;;;;;;;;;;6242027;23;20026;-79
2023/04/19 01:11:31;;;;;;;9.00;6.68;;;;;;;;;;6243302;22;20311;-80
2023/04/19 01:13:57;;;;;;;12.10;7.50;;;;;;;;;;6243111;22;20450;-79
2023/04/19 01:16:25;;;;;;;12.02;7.45;;;;;;;;;;6242973;23;20015;-79
2023/04/19 01:18:50;;;;;;;12.20;7.60;;;;;;;;;;6244381;23;20409;-79
2023/04/19 01:21:17;;;;;;;11.13;7.82;;;;;;;;;;6243508;22;20040;-79
2023/04/19 01:23:42;;;;;;;11.75;7.68;;;;;;;;;;6241733;23;20008;-78
2023/04/19 01:26:08;;;;;;;11.50;7.50;;;;;;;;;;6245840;23;20007;-79
2023/04/19 01:28:33;;;;;;;12.10;7.38;;;;;;;;;;6245584;22;20007;-79
2023/04/19 01:30:58;;;;;;;11.25;7.35;;;;;;;;;;6244771;22;20000;-79
2023/04/19 01:33:24;;;;;;;11.27;7.78;;;;;;;;;;6243538;23;20004;-79
2023/04/19 01:35:49;;;;;;;10.57;7.30;;;;;;;;;;6243856;22;20334;-79
2023/04/19 01:38:16;;;;;;;10.43;7.30;;;;;;;;;;6240645;22;20008;-78
2023/04/19 01:40:41;;;;;;;10.68;6.45;;;;;;;;;;6244734;22;20431;-78
2023/04/19 01:43:07;;;;;;;9.98;6.80;;;;;;;;;;6245155;22;20066;-74
2023/04/19 01:45:35;;;;;;;9.95;6.32;;;;;;;;;;6245215;22;20019;-77
2023/04/19 01:48:02;;;;;;;9.05;6.50;;;;;;;;;;6246616;22;20011;-75
2023/04/19 01:50:27;;;;;;;8.75;6.10;;;;;;;;;;6248159;23;20055;-74
2023/04/19 01:52:52;;;;;;;9.18;6.43;;;;;;;;;;6246525;23;20361;-74
2023/04/19 01:55:18;;;;;;;10.43;6.90;;;;;;;;;;6247750;22;20381;-74
2023/04/19 01:57:44;;;;;;;11.10;7.00;;;;;;;;;;6246860;22;20011;-77
2023/04/19 02:00:10;;;;;;;8.40;5.80;;;;;;;;;;6245779;23;20008;-73
2023/04/19 02:02:37;;;;;;;9.02;6.47;;;;;;;;;;6247593;22;20389;-74
2023/04/19 02:05:04;;;;;;;9.35;6.65;;;;;;;;;;6247448;22;20000;-74
2023/04/19 02:07:29;;;;;;;10.05;6.68;;;;;;;;;;6246893;22;19999;-74
2023/04/19 02:09:54;;;;;;;10.15;6.80;;;;;;;;;;6248137;22;19999;-74
2023/04/19 02:12:20;;;;;;;12.73;7.20;;;;;;;;;;6246701;23;20039;-74
2023/04/19 02:14:45;;;;;;;10.38;6.47;;;;;;;;;;6248840;22;20312;-74
2023/04/19 02:17:11;;;;;;;11.30;6.70;;;;;;;;;;6248807;22;20373;-74
2023/04/19 02:19:36;;;;;;;10.02;6.63;;;;;;;;;;6247384;22;20027;-74
2023/04/19 02:22:02;;;;;;;11.15;7.07;;;;;;;;;;6250390;22;20083;-74
2023/04/19 02:24:27;;;;;;;9.90;6.50;;;;;;;;;;6246959;22;20411;-74
2023/04/19 02:26:52;;;;;;;12.13;6.88;;;;;;;;;;6248676;22;20424;-74
2023/04/19 02:29:18;;;;;;;11.38;6.93;;;;;;;;;;6247432;22;20058;-74
2023/04/19 02:31:45;;;;;;;12.45;7.35;;;;;;;;;;6247253;23;20004;-74
2023/04/19 02:34:11;;;;;;;9.73;6.63;;;;;;;;;;6245928;22;20012;-74
2023/04/19 02:36:36;;;;;;;11.32;7.57;;;;;;;;;;6245486;22;20008;-74
2023/04/19 02:39:02;;;;;;;12.02;7.55;;;;;;;;;;6248072;23;20012;-73
2023/04/19 02:41:27;;;;;;;10.20;7.00;;;;;;;;;;6250072;22;20010;-75
2023/04/19 02:43:52;;;;;;;10.70;6.88;;;;;;;;;;6249627;23;20390;-74
2023/04/19 02:46:18;;;;;;;10.05;7.15;;;;;;;;;;6250139;22;20032;-73
2023/04/19 02:48:43;;;;;;;10.88;6.93;;;;;;;;;;6251258;23;20000;-74
2023/04/19 02:51:15;;;;;;;8.80;6.72;;;;;;;;;;6249168;23;20004;-74
2023/04/19 02:53:40;;;;;;;9.60;6.55;;;;;;;;;;6247534;23;20010;-74
2023/04/19 02:56:06;;;;;;;9.43;6.45;;;;;;;;;;6248808;23;20020;-74
2023/04/19 02:58:31;;;;;;;9.82;7.10;;;;;;;;;;6247914;23;20011;-74
2023/04/19 03:00:57;;;;;;;10.40;6.97;;;;;;;;;;6249510;22;20003;-74
2023/04/19 03:03:22;;;;;;;10.70;6.85;;;;;;;;;;6244998;23;20016;-77
2023/04/19 03:05:48;;;;;;;9.77;6.85;;;;;;;;;;6249397;22;20004;-76
2023/04/19 03:08:13;;;;;;;9.63;7.05;;;;;;;;;;6246090;23;20039;-75
2023/04/19 03:10:38;;;;;;;10.50;7.38;;;;;;;;;;6248391;23;20011;-77
2023/04/19 03:13:04;;;;;;;12.00;7.47;;;;;;;;;;6246909;23;20000;-74
2023/04/19 03:15:29;;;;;;;9.68;6.63;;;;;;;;;;6249865;22;20077;-74
2023/04/19 03:17:54;;;;;;;10.68;6.78;;;;;;;;;;6247936;23;20008;-75
2023/04/19 03:20:20;;;;;;;10.88;6.57;;;;;;;;;;6251133;22;20000;-75
2023/04/19 03:22:45;;;;;;;10.50;6.50;;;;;;;;;;6246440;23;20071;-75
2023/04/19 03:25:13;;;;;;;12.63;7.05;;;;;;;;;;6248832;22;20330;-74
2023/04/19 03:27:39;;;;;;;9.68;6.38;;;;;;;;;;6246796;23;20430;-74
2023/04/19 03:30:05;;;;;;;10.20;6.43;;;;;;;;;;6245328;22;20015;-75
2023/04/19 03:32:31;;;;;;;10.70;6.53;;;;;;;;;;6246089;23;20008;-75
2023/04/19 03:34:56;;;;;;;10.05;6.55;;;;;;;;;;6247403;23;19996;-76
2023/04/19 03:37:21;;;;;;;9.60;6.40;;;;;;;;;;6243917;23;20011;-74
2023/04/19 03:39:47;;;;;;;10.98;6.50;;;;;;;;;;6249151;22;20000;-74
2023/04/19 03:42:12;;;;;;;13.07;6.85;;;;;;;;;;6250260;22;20088;-74
2023/04/19 03:44:37;;;;;;;9.88;6.35;;;;;;;;;;6249421;22;20011;-74
2023/04/19 03:47:03;;;;;;;9.07;6.28;;;;;;;;;;6247838;22;20008;-74
2023/04/19 03:49:28;;;;;;;10.35;6.28;;;;;;;;;;6247550;22;20008;-77
2023/04/19 03:51:54;;;;;;;10.68;6.47;;;;;;;;;;6247421;22;20034;-74
2023/04/19 03:54:19;;;;;;;10.70;6.32;;;;;;;;;;6246596;22;20007;-74
2023/04/19 03:56:45;;;;;;;9.27;6.40;;;;;;;;;;6246578;23;20015;-74
2023/04/19 03:59:10;;;;;;;8.65;5.75;;;;;;;;;;6246560;22;20004;-74
2023/04/19 04:01:40;;;;;;;10.85;6.10;;;;;;;;;;6247209;23;20422;-74
2023/04/19 04:04:10;;;;;;;9.98;5.68;;;;;;;;;;6245737;22;20004;-73
2023/04/19 04:06:36;;;;;;;9.90;5.88;;;;;;;;;;6246960;22;20004;-74
2023/04/19 04:09:01;;;;;;;8.75;5.82;;;;;;;;;;6246851;22;20031;-74
2023/04/19 04:11:27;;;;;;;10.18;5.53;;;;;;;;;;6246073;22;20000;-74
2023/04/19 04:13:54;;;;;;;9.35;6.15;;;;;;;;;;6245587;22;20338;-74
2023/04/19 04:16:20;;;;;;;11.25;6.18;;;;;;;;;;6246341;23;20031;-76
2023/04/19 04:18:45;;;;;;;8.20;5.65;;;;;;;;;;6247551;22;20000;-74
2023/04/19 04:21:10;;;;;;;9.27;5.63;;;;;;;;;;6244143;23;20004;-77
2023/04/19 04:23:36;;;;;;;10.02;6.00;;;;;;;;;;6245990;22;20015;-75
2023/04/19 04:26:03;;;;;;;8.45;5.63;;;;;;;;;;6241691;23;20008;-76
2023/04/19 04:28:29;;;;;;;7.85;5.25;;;;;;;;;;6247360;22;20004;-74
2023/04/19 04:30:56;;;;;;;9.48;5.47;;;;;;;;;;6242567;23;20079;-74
2023/04/19 04:33:25;;;;;;;8.45;5.53;;;;;;;;;;6245198;23;20000;-74
2023/04/19 04:35:52;;;;;;;8.07;5.40;;;;;;;;;;6244588;23;20004;-75
2023/04/19 04:38:17;;;;;;;8.05;5.20;;;;;;;;;;6245029;22;20419;-74
2023/04/19 04:40:43;;;;;;;8.55;5.85;;;;;;;;;;6243888;23;20035;-75
2023/04/19 04:43:09;;;;;;;7.60;4.90;;;;;;;;;;6244079;23;20004;-74
2023/04/19 04:45:36;;;;;;;7.93;5.50;;;;;;;;;;6245243;22;20008;-75
2023/04/19 04:48:02;;;;;;;9.73;5.40;;;;;;;;;;6247286;22;20338;-74
2023/04/19 04:50:27;;;;;;;7.13;4.93;;;;;;;;;;6245921;23;20094;-74
2023/04/19 04:52:52;;;;;;;9.52;5.18;;;;;;;;;;6250176;22;20004;-74
2023/04/19 04:55:18;;;;;;;9.10;5.22;;;;;;;;;;6246223;23;20330;-74
2023/04/19 04:57:43;;;;;;;8.15;5.10;;;;;;;;;;6248097;22;20014;-74
2023/04/19 05:00:10;;;;;;;7.38;4.93;;;;;;;;;;6247470;23;20390;-74
2023/04/19 05:02:36;;;;;;;7.40;4.97;;;;;;;;;;6249207;22;20024;-74
2023/04/19 05:05:02;;;;;;;8.30;5.20;;;;;;;;;;6251112;23;20000;-74
2023/04/19 05:07:27;;;;;;;8.15;5.32;;;;;;;;;;6248871;23;20374;-74
2023/04/19 05:09:52;;;;;;;7.45;4.75;;;;;;;;;;6249002;23;20000;-74
2023/04/19 05:12:18;;;;;;;7.00;4.57;;;;;;;;;;6248487;23;20000;-74
2023/04/19 05:14:43;;;;;;;8.45;4.90;;;;;;;;;;6251778;22;20004;-75
2023/04/19 05:17:10;;;;;;;8.95;5.05;;;;;;;;;;6250262;23;20004;-74
2023/04/19 05:19:35;;;;;;;7.28;4.75;;;;;;;;;;6250344;22;20030;-74
2023/04/19 05:22:00;;;;;;;8.77;4.82;;;;;;;;;;6250744;23;20020;-74
2023/04/19 05:24:26;;;;;;;6.90;4.32;;;;;;;;;;6249203;22;20022;-74
2023/04/19 05:26:51;;;;;;;7.95;4.97;;;;;;;;;;6249780;22;20004;-75
2023/04/19 05:29:17;;;;;;;8.68;4.97;;;;;;;;;;6253161;22;20008;-76
2023/04/19 05:31:42;;;;;;;7.35;4.82;;;;;;;;;;6249437;23;20007;-74
2023/04/19 05:34:08;;;;;;;7.57;4.78;;;;;;;;;;6248306;23;20110;-74
2023/04/19 05:36:33;;;;;;;10.18;4.93;;;;;;;;;;6248959;23;20066;-74
2023/04/19 05:38:59;;;;;;;8.55;4.85;;;;;;;;;;6248828;22;20008;-74
2023/04/19 05:41:24;;;;;;;7.18;4.82;;;;;;;;;;6247262;22;20011;-75
2023/04/19 05:43:50;;;;;;;8.77;4.80;;;;;;;;;;6250451;22;20079;-76
2023/04/19 05:46:15;;;;;;;6.93;4.40;;;;;;;;;;6248627;23;20035;-74
2023/04/19 05:48:40;;;;;;;7.65;4.90;;;;;;;;;;6247317;23;20008;-74
2023/04/19 05:51:06;;;;;;;8.85;4.82;;;;;;;;;;6250780;22;20014;-74
2023/04/19 05:53:31;;;;;;;6.90;4.68;;;;;;;;;;6247838;23;20087;-76
2023/04/19 05:55:56;;;;;;;8.88;4.65;;;;;;;;;;6247937;23;20011;-74
2023/04/19 05:58:22;;;;;;;6.53;4.25;;;;;;;;;;6248864;23;20448;-74
2023/04/19 06:00:48;;;;;;;8.63;5.03;;;;;;;;;;6249301;23;20058;-74
2023/04/19 06:03:13;;;;;;;6.93;4.43;;;;;;;;;;6247801;23;20039;-75
2023/04/19 06:05:39;;;;;;;8.27;4.55;;;;;;;;;;6245551;23;19999;-74
2023/04/19 06:08:05;;;;;;;6.53;4.32;;;;;;;;;;6247399;23;20004;-74
2023/04/19 06:10:31;;;;;;;7.03;4.32;;;;;;;;;;6250104;22;20004;-74
2023/04/19 06:12:56;;;;;;;8.85;4.72;;;;;;;;;;6248835;23;20010;-74
2023/04/19 06:15:22;;;;;;;7.25;4.32;;;;;;;;;;6248488;22;20027;-74
2023/04/19 06:17:47;;;;;;;6.97;4.47;;;;;;;;;;6248453;22;20003;-74
2023/04/19 06:20:13;;;;;;;6.35;4.57;;;;;;;;;;6248305;22;20065;-75
2023/04/19 06:22:43;;;;;;;7.93;4.38;;;;;;;;;;6247489;22;20008;-74
2023/04/19 06:25:09;;;;;;;5.85;3.97;;;;;;;;;;6246596;23;20019;-74
2023/04/19 06:27:34;;;;;;;7.28;4.93;;;;;;;;;;6246205;23;20004;-74
2023/04/19 06:29:59;;;;;;;6.82;4.20;;;;;;;;;;6249674;22;20004;-74
2023/04/19 06:32:25;;;;;;;8.48;4.35;;;;;;;;;;6247929;22;20004;-74
2023/04/19 06:34:50;;;;;;;8.40;4.70;;;;;;;;;;6249153;22;20031;-74
2023/04/19 06:37:16;;;;;;;7.03;4.13;;;;;;;;;;6247551;23;20137;-74
2023/04/19 06:39:41;;;;;;;7.68;4.25;;;;;;;;;;6244103;22;20007;-74
2023/04/19 06:42:06;;;;;;;6.63;4.20;;;;;;;;;;6248392;23;20004;-74
2023/04/19 06:44:32;;;;;;;7.05;4.40;;;;;;;;;;6248104;22;20426;-75
2023/04/19 06:46:57;;;;;;;8.25;4.35;;;;;;;;;;6247515;23;20453;-75
2023/04/19 06:49:22;;;;;;;8.18;4.70;;;;;;;;;;6247608;22;20417;-75
2023/04/19 06:51:48;;;;;;;6.57;4.40;;;;;;;;;;6247005;22;20011;-74
2023/04/19 06:54:13;;;;;;;6.55;4.30;;;;;;;;;;6245718;22;20012;-74
2023/04/19 06:56:39;;;;;;;6.90;4.13;;;;;;;;;;6245803;23;20089;-74
2023/04/19 06:59:05;;;;;;;8.00;4.28;;;;;;;;;;6249302;22;20030;-74
2023/04/19 07:01:30;;;;;;;7.18;4.47;;;;;;;;;;6249764;22;20011;-75
2023/04/19 07:03:55;;;;;;;6.20;4.15;;;;;;;;;;6247797;23;20014;-74
2023/04/19 07:06:21;;;;;;;7.75;4.75;;;;;;;;;;6249851;23;20058;-74
2023/04/19 07:08:46;;;;;;;8.10;4.50;;;;;;;;;;6250757;22;20062;-74
2023/04/19 07:11:11;;;;;;;6.70;4.28;;;;;;;;;;6250593;22;20008;-74
2023/04/19 07:13:37;;;;;;;6.00;3.88;;;;;;;;;;6246926;23;20020;-75
2023/04/19 07:16:06;;;;;;;7.22;4.75;;;;;;;;;;6248174;23;20011;-76
2023/04/19 07:18:31;;;;;;;7.93;4.45;;;;;;;;;;6247072;23;20006;-74
2023/04/19 07:20:57;;;;;;;7.60;4.03;;;;;;;;;;6248323;23;20326;-74
2023/04/19 07:23:22;;;;;;;6.32;4.20;;;;;;;;;;6246735;23;20035;-75
2023/04/19 07:25:47;;;;;;;8.25;4.28;;;;;;;;;;6244143;22;20000;-74
2023/04/19 07:28:13;;;;;;;6.38;3.85;;;;;;;;;;6246932;22;20346;-74
2023/04/19 07:30:38;;;;;;;6.50;4.05;;;;;;;;;;6245628;22;20452;-74
2023/04/19 07:33:03;;;;;;;7.90;4.00;;;;;;;;;;6247315;22;20020;-73
2023/04/19 07:35:29;;;;;;;6.55;4.00;;;;;;;;;;6247763;22;20042;-74
2023/04/19 07:37:55;;;;;;;6.63;4.03;;;;;;;;;;6246732;23;20008;-74
2023/04/19 07:40:20;;;;;;;6.50;4.20;;;;;;;;;;6246371;22;20143;-74
2023/04/19 07:42:45;;;;;;;7.22;3.95;;;;;;;;;;6249834;22;20005;-74
2023/04/19 07:45:11;;;;;;;8.20;4.20;;;;;;;;;;6247464;22;20000;-74
2023/04/19 07:47:36;;;;;;;7.07;3.97;;;;;;;;;;6246510;22;20007;-75
2023/04/19 07:50:03;;;;;;;6.78;3.63;;;;;;;;;;6247062;22;20004;-74
2023/04/19 07:52:28;;;;;;;9.75;4.20;;;;;;;;;;6245829;23;20008;-74
2023/04/19 07:54:53;;;;;;;6.22;3.90;;;;;;;;;;6246933;23;20004;-74
2023/04/19 07:57:19;;;;;;;8.02;3.90;;;;;;;;;;6247248;23;20034;-74
2023/04/19 10:29:59;;;;;;;4.50;1.52;;;;;;;;;;6230418;22;20065;-78
2023/04/19 10:32:35;;;;;;;3.97;1.70;;;;;;;;;;6236164;23;20398;-77
2023/04/19 10:35:03;;;;;;;3.88;1.60;;;;;;;;;;6241686;23;20007;-78
2023/04/19 10:37:30;;;;;;;3.28;1.45;;;;;;;;;;6242454;23;20040;-78
2023/04/19 10:39:55;;;;;;;3.75;1.58;;;;;;;;;;6243901;22;20011;-77
2023/04/19 10:42:21;;;;;;;6.22;1.77;;;;;;;;;;6240266;23;20163;-78
2023/04/19 10:45:24;;;;;;;3.25;1.52;;;;;;;;;;6242150;23;20019;-78
2023/04/19 10:47:50;;;;;;;3.03;1.60;;;;;;;;;;6242664;23;20004;-78
2023/04/19 10:50:16;;;;;;;4.68;1.60;;;;;;;;;;6240723;23;20430;-77
2023/04/19 10:52:42;;;;;;;2.88;1.52;;;;;;;;;;6243301;23;20008;-77
2023/04/19 10:55:07;;;;;;;2.42;1.45;;;;;;;;;;6237639;23;20353;-78
2023/04/19 10:58:05;;;;;;;4.55;1.90;;;;;;;;;;6215154;23;20033;-77
2023/04/19 11:00:32;;;;;;;3.95;1.52;;;;;;;;;;6240876;23;20429;-78
2023/04/19 11:02:59;;;;;;;2.67;1.60;;;;;;;;;;6239256;23;20000;-77
2023/04/19 11:05:25;;;;;;;2.70;1.50;;;;;;;;;;6243239;22;20330;-77
2023/04/19 11:07:50;;;;;;;4.05;1.63;;;;;;;;;;6238932;23;20046;-78
2023/04/19 11:10:29;;;;;;;4.50;1.63;;;;;;;;;;6239671;23;20008;-78
2023/04/19 11:12:54;;;;;;;3.13;1.33;;;;;;;;;;6243160;22;20031;-78
2023/04/19 11:15:23;;;;;;;2.50;1.60;;;;;;;;;;6241984;23;20038;-78
2023/04/19 11:17:53;;;;;;;3.10;1.73;;;;;;;;;;6241514;22;20503;-78
2023/04/19 11:20:22;;;;;;;2.83;1.60;;;;;;;;;;6241999;23;20008;-78
2023/04/19 11:22:47;;;;;;;4.03;1.80;;;;;;;;;;6237858;22;20354;-78
2023/04/19 11:25:18;;;;;;;5.45;1.90;;;;;;;;;;6233407;23;20015;-78
2023/04/19 11:27:48;;;;;;;3.88;1.30;;;;;;;;;;6231847;22;20065;-78
2023/04/19 11:30:35;;;;;;;3.28;1.63;;;;;;;;;;6233520;23;20099;-78
2023/04/19 11:33:00;;;;;;;3.80;1.58;;;;;;;;;;6233402;22;20006;-78
2023/04/19 11:35:27;;;;;;;2.90;1.60;;;;;;;;;;6232279;22;20008;-77
2023/04/19 11:37:53;;;;;;;2.97;1.85;;;;;;;;;;6232325;22;20454;-78
2023/04/19 11:40:21;;;;;;;3.13;1.80;;;;;;;;;;6230770;23;20066;-78
2023/04/19 11:42:53;;;;;;;3.20;1.80;;;;;;;;;;6229274;23;20448;-78
2023/04/19 11:45:29;;;;;;;5.03;1.98;;;;;;;;;;6230201;22;20014;-77
2023/04/19 11:47:56;;;;;;;3.70;1.95;;;;;;;;;;6228622;23;20461;-78
2023/04/19 11:50:31;;;;;;;4.00;1.83;;;;;;;;;;6229948;22;20381;-78
2023/04/19 11:52:57;;;;;;;3.63;1.80;;;;;;;;;;6231840;23;20007;-78
2023/04/19 11:55:22;;;;;;;3.47;1.92;;;;;;;;;;6231613;22;20034;-77
2023/04/19 11:57:48;;;;;;;5.63;2.10;;;;;;;;;;6231186;22;20370;-77
2023/04/19 12:00:15;;;;;;;5.30;2.08;;;;;;;;;;6228653;23;20023;-78
2023/04/19 12:02:42;;;;;;;5.07;2.00;;;;;;;;;;6230201;23;20027;-77
2023/04/19 12:05:13;;;;;;;3.90;1.95;;;;;;;;;;6204061;23;20020;-78
2023/04/19 12:08:02;;;;;;;4.63;1.80;;;;;;;;;;6229431;23;20008;-78
2023/04/19 12:10:27;;;;;;;3.28;1.67;;;;;;;;;;6232249;22;20429;-78
2023/04/19 12:12:53;;;;;;;3.72;1.80;;;;;;;;;;6226796;23;20004;-78
2023/04/19 12:15:18;;;;;;;5.00;2.00;;;;;;;;;;6229745;23;20004;-78
2023/04/19 12:18:01;;;;;;;6.13;1.80;;;;;;;;;;6232108;22;20482;-78
2023/04/19 12:20:33;;;;;;;3.97;1.87;;;;;;;;;;6230071;23;20442;-78
2023/04/19 12:22:58;;;;;;;3.03;1.80;;;;;;;;;;6230955;22;20004;-78
2023/04/19 12:25:32;;;;;;;3.13;1.73;;;;;;;;;;6227770;23;20240;-78
2023/04/19 12:28:02;;;;;;;3.20;1.98;;;;;;;;;;6228566;23;20715;-78
2023/04/19 12:30:27;;;;;;;4.35;1.88;;;;;;;;;;6230303;23;20146;-78
2023/04/19 12:32:54;;;;;;;3.95;1.65;;;;;;;;;;6232059;23;20036;-78
2023/04/19 12:35:21;;;;;;;3.63;1.88;;;;;;;;;;6227078;23;20016;-78
2023/04/19 12:37:46;;;;;;;4.72;1.95;;;;;;;;;;6235705;23;20015;-78
2023/04/19 12:40:12;;;;;;;3.63;1.90;;;;;;;;;;6231340;22;20004;-78
2023/04/19 12:42:38;;;;;;;2.90;1.67;;;;;;;;;;6224584;23;20085;-78
2023/04/19 12:45:04;;;;;;;3.40;1.40;;;;;;;;;;6227669;22;20740;-77
2023/04/19 12:47:29;;;;;;;3.42;1.80;;;;;;;;;;6229458;23;20008;-78
2023/04/19 12:49:56;;;;;;;4.30;1.90;;;;;;;;;;6229338;23;20417;-78
2023/04/19 12:52:22;;;;;;;5.00;1.85;;;;;;;;;;6232410;22;20004;-78
2023/04/19 12:54:47;;;;;;;4.00;2.13;;;;;;;;;;6229791;23;20290;-78
2023/04/19 12:57:12;;;;;;;3.28;1.73;;;;;;;;;;6227912;23;20015;-78
2023/04/19 12:59:37;;;;;;;4.05;1.73;;;;;;;;;;6227740;22;20003;-78
2023/04/19 13:02:04;;;;;;;3.78;2.10;;;;;;;;;;6228807;23;20003;-78
2023/04/19 13:04:30;;;;;;;3.85;2.15;;;;;;;;;;6232895;23;20738;-78
2023/04/19 13:06:55;;;;;;;3.17;1.90;;;;;;;;;;6230576;22;20008;-78
2023/04/19 13:09:21;;;;;;;3.50;1.98;;;;;;;;;;6229454;23;20010;-78
2023/04/19 13:11:46;;;;;;;5.13;2.00;;;;;;;;;;6232609;22;20062;-77
2023/04/19 13:14:11;;;;;;;3.50;2.10;;;;;;;;;;6232797;22;20091;-77
2023/04/19 13:16:37;;;;;;;3.83;2.00;;;;;;;;;;6231008;23;20012;-78
2023/04/19 13:19:02;;;;;;;6.45;1.80;;;;;;;;;;6232435;22;20008;-77
2023/04/19 13:21:28;;;;;;;5.13;2.30;;;;;;;;;;6229547;23;20408;-78
2023/04/19 13:23:53;;;;;;;5.28;2.38;;;;;;;;;;6227558;23;20442;-78
2023/04/19 13:26:18;;;;;;;5.90;2.20;;;;;;;;;;6233816;22;20008;-77
2023/04/19 13:28:44;;;;;;;3.35;2.17;;;;;;;;;;6232743;22;20032;-77
2023/04/19 13:31:09;;;;;;;4.93;2.10;;;;;;;;;;6230708;23;20115;-78
2023/04/19 13:33:35;;;;;;;4.15;2.20;;;;;;;;;;6227249;23;20471;-77
2023/04/19 13:36:01;;;;;;;6.30;2.53;;;;;;;;;;6230917;22;20008;-77
2023/04/19 13:38:26;;;;;;;3.67;2.30;;;;;;;;;;6229645;22;20454;-78
2023/04/19 13:40:52;;;;;;;6.07;2.42;;;;;;;;;;6232872;22;20359;-78
2023/04/19 13:43:17;;;;;;;3.58;2.20;;;;;;;;;;6229752;23;20000;-77
2023/04/19 13:45:42;;;;;;;4.38;2.63;;;;;;;;;;6228817;23;20019;-77
2023/04/19 13:48:08;;;;;;;5.55;2.70;;;;;;;;;;6231970;23;20019;-77
2023/04/19 13:50:33;;;;;;;5.07;2.60;;;;;;;;;;6232290;22;20015;-77
2023/04/19 13:52:59;;;;;;;5.65;2.58;;;;;;;;;;6233350;22;20000;-78
2023/04/19 13:55:25;;;;;;;5.45;2.70;;;;;;;;;;6233562;23;20463;-77
2023/04/19 13:57:50;;;;;;;6.25;2.65;;;;;;;;;;6230743;23;20019;-77
2023/04/19 14:00:16;;;;;;;4.75;2.60;;;;;;;;;;6235485;22;20011;-77
2023/04/19 14:02:43;;;;;;;4.47;2.40;;;;;;;;;;6231137;23;20012;-77
2023/04/19 14:05:09;;;;;;;4.45;2.47;;;;;;;;;;6231113;22;20023;-77
2023/04/19 14:07:34;;;;;;;3.60;2.40;;;;;;;;;;6229597;22;20328;-78
2023/04/19 14:10:00;;;;;;;5.18;2.60;;;;;;;;;;6230241;23;20015;-77
2023/04/19 14:12:25;;;;;;;4.18;2.67;;;;;;;;;;6231060;22;20000;-77
2023/04/19 14:14:50;;;;;;;3.65;2.35;;;;;;;;;;6231032;22;20053;-78
2023/04/19 14:17:19;;;;;;;6.15;2.67;;;;;;;;;;6230142;23;20004;-78
2023/04/19 14:19:44;;;;;;;5.22;2.58;;;;;;;;;;6228677;23;20012;-77
2023/04/19 14:22:10;;;;;;;4.88;2.83;;;;;;;;;;6229696;23;20066;-77
2023/04/19 14:24:35;;;;;;;4.20;2.50;;;;;;;;;;6230914;22;20074;-77
2023/04/19 14:27:00;;;;;;;4.13;2.10;;;;;;;;;;6227429;23;20004;-77
2023/04/19 14:29:26;;;;;;;7.38;2.50;;;;;;;;;;6227840;23;20051;-77
2023/04/19 14:31:52;;;;;;;4.85;2.28;;;;;;;;;;6229461;23;20377;-78
2023/04/19 14:34:17;;;;;;;3.67;2.22;;;;;;;;;;6229267;22;20035;-77
2023/04/19 14:36:42;;;;;;;4.78;2.20;;;;;;;;;;6232723;22;20069;-77
2023/04/19 14:39:08;;;;;;;4.13;2.45;;;;;;;;;;6231106;23;20007;-78
2023/04/19 14:41:33;;;;;;;6.47;2.58;;;;;;;;;;6233021;23;20012;-77
2023/04/19 14:43:58;;;;;;;4.43;2.38;;;;;;;;;;6233926;22;20000;-77
2023/04/19 14:46:24;;;;;;;4.80;2.47;;;;;;;;;;6231090;23;20019;-78
2023/04/19 14:48:49;;;;;;;4.20;2.67;;;;;;;;;;6233664;22;20036;-77
2023/04/19 14:51:14;;;;;;;4.55;2.38;;;;;;;;;;6231877;23;20031;-77
2023/04/19 14:53:40;;;;;;;4.18;2.60;;;;;;;;;;6232613;23;20031;-77
2023/04/19 14:56:06;;;;;;;3.17;2.17;;;;;;;;;;6232878;22;20042;-77
2023/04/19 14:58:31;;;;;;;4.70;2.40;;;;;;;;;;6234218;22;20456;-77
2023/04/19 15:00:58;;;;;;;3.92;2.40;;;;;;;;;;6230820;23;20055;-77
2023/04/19 15:03:23;;;;;;;4.53;2.15;;;;;;;;;;6229195;23;20008;-77
2023/04/19 15:05:48;;;;;;;3.78;2.33;;;;;;;;;;6232123;22;20605;-78
2023/04/19 15:08:14;;;;;;;7.63;2.63;;;;;;;;;;6232266;22;20087;-77
2023/04/19 15:10:40;;;;;;;5.10;2.58;;;;;;;;;;6229485;23;20018;-77
2023/04/19 15:13:05;;;;;;;4.22;2.45;;;;;;;;;;6231086;23;20000;-77
2023/04/19 15:15:30;;;;;;;4.15;2.30;;;;;;;;;;6229246;23;20004;-77
2023/04/19 15:17:56;;;;;;;5.20;2.35;;;;;;;;;;6230637;23;20011;-77
2023/04/19 15:20:21;;;;;;;4.20;2.20;;;;;;;;;;6206963;23;20189;-77
2023/04/19 15:22:46;;;;;;;5.45;2.05;;;;;;;;;;6235060;22;20699;-77
2023/04/19 15:25:12;;;;;;;4.60;2.25;;;;;;;;;;6234715;22;20004;-77
2023/04/19 15:27:37;;;;;;;5.25;2.63;;;;;;;;;;6238341;22;20010;-77
2023/04/19 15:30:03;;;;;;;4.70;2.28;;;;;;;;;;6240081;22;20014;-77
2023/04/19 15:32:32;;;;;;;3.55;2.17;;;;;;;;;;6241183;22;20091;-77
2023/04/19 15:34:58;;;;;;;3.63;2.20;;;;;;;;;;6241739;22;20008;-77
2023/04/19 15:37:23;;;;;;;5.03;2.67;;;;;;;;;;6242703;22;20038;-77
2023/04/19 15:39:49;;;;;;;4.05;2.03;;;;;;;;;;6240878;23;20016;-77
2023/04/19 15:42:14;;;;;;;5.10;2.13;;;;;;;;;;6242714;23;20097;-78
2023/04/19 15:44:39;;;;;;;4.93;2.35;;;;;;;;;;6242400;22;20018;-78
2023/04/19 15:47:05;;;;;;;3.72;2.20;;;;;;;;;;6243720;22;20024;-77
2023/04/19 15:49:30;;;;;;;4.10;2.20;;;;;;;;;;6242019;23;20008;-77
2023/04/19 15:51:55;;;;;;;5.00;2.40;;;;;;;;;;6243408;22;20008;-77
2023/04/19 15:54:21;;;;;;;4.85;2.35;;;;;;;;;;6247922;23;20008;-77
2023/04/19 15:56:47;;;;;;;5.07;2.67;;;;;;;;;;6248752;23;20461;-77
2023/04/19 15:59:12;;;;;;;4.70;2.25;;;;;;;;;;6248693;23;20023;-78
2023/04/19 16:01:38;;;;;;;3.97;2.25;;;;;;;;;;6251311;22;20000;-77
2023/04/19 16:04:03;;;;;;;7.88;2.38;;;;;;;;;;6255072;22;20028;-78
2023/04/19 16:06:29;;;;;;;4.75;2.35;;;;;;;;;;6252482;22;20000;-78
2023/04/19 16:08:54;;;;;;;4.68;2.40;;;;;;;;;;6248686;23;20472;-78
2023/04/19 16:11:19;;;;;;;6.15;3.50;;;;;;;;;;6248015;23;20431;-78
2023/04/19 16:13:45;;;;;;;4.20;2.17;;;;;;;;;;6245995;22;20335;-78
2023/04/19 16:16:10;;;;;;;4.63;2.40;;;;;;;;;;6245863;23;20334;-78
2023/04/19 16:18:35;;;;;;;4.45;2.45;;;;;;;;;;6249165;22;20000;-77
2023/04/19 16:21:02;;;;;;;4.82;2.55;;;;;;;;;;6251523;22;20083;-77
2023/04/19 16:23:27;;;;;;;5.93;2.30;;;;;;;;;;6249092;22;20007;-77
2023/04/19 16:25:52;;;;;;;4.13;2.60;;;;;;;;;;6246967;22;20008;-78
2023/04/19 16:28:18;;;;;;;7.82;2.58;;;;;;;;;;6243701;23;20038;-78
2023/04/19 16:30:45;;;;;;;14.68;8.77;;;;;;;;;;6247881;22;20015;-78
2023/04/19 16:33:11;;;;;;;5.50;2.60;;;;;;;;;;6246156;23;20004;-78
2023/04/19 16:35:36;;;;;;;4.82;2.40;;;;;;;;;;6246142;23;20426;-78
2023/04/19 16:38:03;;;;;;;4.55;2.05;;;;;;;;;;6247664;23;20012;-77
2023/04/19 16:40:28;;;;;;;4.70;2.10;;;;;;;;;;6248461;22;20421;-78
2023/04/19 16:42:54;;;;;;;4.05;2.15;;;;;;;;;;6246288;23;20008;-78
2023/04/19 16:45:19;;;;;;;4.88;2.45;;;;;;;;;;6248107;23;20067;-78
2023/04/19 16:47:45;;;;;;;5.45;2.47;;;;;;;;;;6251053;22;20028;-78
2023/04/19 16:50:11;;;;;;;3.50;2.22;;;;;;;;;;6245016;23;20016;-77
2023/04/19 16:52:36;;;;;;;4.38;2.35;;;;;;;;;;6248034;23;20000;-77
2023/04/19 16:55:04;;;;;;;3.95;2.20;;;;;;;;;;6247745;22;20015;-78
2023/04/19 16:57:30;;;;;;;3.50;2.10;;;;;;;;;;6250664;22;20011;-78
2023/04/19 16:59:56;;;;;;;4.18;2.15;;;;;;;;;;6248792;23;20004;-78
2023/04/19 17:02:22;;;;;;;5.80;2.30;;;;;;;;;;6245949;22;20019;-77
2023/04/19 17:04:47;;;;;;;3.63;2.10;;;;;;;;;;6245277;22;20091;-78